createdAt,value
2023-04-17T00:00:28.863Z,36.72
2023-04-17T00:02:56.646Z,37.58
2023-04-17T00:05:26.440Z,40.55
2023-04-17T00:07:54.314Z,41.10
2023-04-17T00:10:23.536Z,44.80
2023-04-17T00:12:51.238Z,45.10
2023-04-17T00:15:18.904Z,47.80
2023-04-17T00:17:46.670Z,47.58
2023-04-17T00:20:14.817Z,50.97
2023-04-17T00:22:42.642Z,53.53
2023-04-17T00:25:12.819Z,53.70
2023-04-17T00:27:42.178Z,54.90
2023-04-17T00:30:10.540Z,58.67
2023-04-17T00:32:38.799Z,58.42
2023-04-17T00:35:07.371Z,58.92
2023-04-17T00:37:36.224Z,62.33
2023-04-17T00:40:04.128Z,65.80
2023-04-17T00:42:31.830Z,66.72
2023-04-17T00:45:01.002Z,66.40
2023-04-17T00:47:28.767Z,71.55
2023-04-17T00:49:56.461Z,75.43
2023-04-17T00:52:28.245Z,74.80
2023-04-17T00:54:55.938Z,76.40
2023-04-17T00:57:24.122Z,77.40
2023-04-17T00:59:51.776Z,82.97
2023-04-17T01:02:21.109Z,81.95
2023-04-17T01:04:48.984Z,86.63
2023-04-17T01:07:16.716Z,89.43
2023-04-17T01:09:44.479Z,90.00
2023-04-17T01:12:22.134Z,93.10
2023-04-17T01:14:50.897Z,93.68
2023-04-17T01:17:20.399Z,98.50
2023-04-17T01:19:48.328Z,96.90
2023-04-17T01:22:16.750Z,101.95
2023-04-17T01:24:46.113Z,104.75
2023-04-17T01:27:14.870Z,105.30
2023-04-17T01:29:44.539Z,108.45
2023-04-17T01:32:12.578Z,109.82
2023-04-17T01:34:40.436Z,109.82
2023-04-17T01:37:08.168Z,111.07
2023-04-17T01:39:36.768Z,114.05
2023-04-17T01:42:06.544Z,115.75
2023-04-17T01:44:34.238Z,120.90
2023-04-17T01:47:01.904Z,122.53
2023-04-17T01:49:29.743Z,121.03
2023-04-17T01:51:57.510Z,123.97
2023-04-17T01:54:25.461Z,125.97
2023-04-17T01:56:53.168Z,126.18
2023-04-17T01:59:22.199Z,127.40
2023-04-17T02:01:50.719Z,129.90
2023-04-17T02:04:18.602Z,127.97
2023-04-17T02:06:46.325Z,131.20
2023-04-17T02:09:14.108Z,131.00
2023-04-17T02:11:41.838Z,133.13
2023-04-17T02:14:09.488Z,134.35
2023-04-17T02:16:39.863Z,132.07
2023-04-17T02:19:07.567Z,131.93
2023-04-17T02:21:35.281Z,133.73
2023-04-17T02:24:06.276Z,132.77
2023-04-17T02:26:33.991Z,133.15
2023-04-17T02:29:01.688Z,135.52
2023-04-17T02:31:29.411Z,135.65
2023-04-17T02:33:58.438Z,132.93
2023-04-17T02:36:26.348Z,132.98
2023-04-17T02:38:54.090Z,133.07
2023-04-17T02:41:21.900Z,135.73
2023-04-17T02:43:49.602Z,134.00
2023-04-17T02:46:18.619Z,133.25
2023-04-17T02:48:46.462Z,131.77
2023-04-17T02:51:15.510Z,132.05
2023-04-17T02:53:43.254Z,129.35
2023-04-17T02:56:10.953Z,128.52
2023-04-17T02:58:39.603Z,131.18
2023-04-17T03:01:09.605Z,129.25
2023-04-17T03:03:42.674Z,129.05
2023-04-17T03:06:15.013Z,128.40
2023-04-17T03:08:43.297Z,124.00
2023-04-17T03:11:11.059Z,126.15
2023-04-17T03:13:38.786Z,120.57
2023-04-17T03:16:07.308Z,123.30
2023-04-17T03:18:40.163Z,121.55
2023-04-17T03:21:08.293Z,117.05
2023-04-17T03:23:37.412Z,118.35
2023-04-17T03:26:06.845Z,118.40
2023-04-17T03:28:34.979Z,115.93
2023-04-17T03:31:03.791Z,114.38
2023-04-17T03:33:33.832Z,115.93
2023-04-17T03:36:01.572Z,113.60
2023-04-17T03:38:29.370Z,112.82
2023-04-17T03:40:58.375Z,110.28
2023-04-17T03:43:26.649Z,110.32
2023-04-17T03:45:54.357Z,108.78
2023-04-17T03:48:22.865Z,105.53
2023-04-17T03:50:52.315Z,108.38
2023-04-17T03:53:20.293Z,105.85
2023-04-17T03:55:49.540Z,105.05
2023-04-17T03:58:27.286Z,103.18
2023-04-17T04:00:55.606Z,101.10
2023-04-17T04:03:26.882Z,100.88
2023-04-17T04:05:54.748Z,100.95
2023-04-17T04:08:22.409Z,96.30
2023-04-17T04:10:52.925Z,99.72
2023-04-17T04:13:28.003Z,95.43
2023-04-17T04:16:01.880Z,95.35
2023-04-17T04:18:31.334Z,95.57
2023-04-17T04:20:59.471Z,92.80
2023-04-17T04:23:31.724Z,91.90
2023-04-17T04:26:01.622Z,91.20
2023-04-17T04:28:43.719Z,87.82
2023-04-17T04:31:20.776Z,87.93
2023-04-17T04:33:54.876Z,88.45
2023-04-17T04:36:23.873Z,84.53
2023-04-17T04:39:00.785Z,83.35
2023-04-17T04:41:34.144Z,82.82
2023-04-17T04:44:05.544Z,82.40
2023-04-17T04:46:36.327Z,81.63
2023-04-17T04:49:05.573Z,79.80
2023-04-17T04:51:33.756Z,80.40
2023-04-17T04:54:03.612Z,76.68
2023-04-17T04:56:33.095Z,75.63
2023-04-17T04:59:01.112Z,75.93
2023-04-17T05:01:33.113Z,72.25
2023-04-17T05:04:02.387Z,71.80
2023-04-17T05:06:31.167Z,71.35
2023-04-17T05:09:02.379Z,71.32
2023-04-17T05:11:30.639Z,68.57
2023-04-17T05:13:59.265Z,68.25
2023-04-17T05:16:30.901Z,66.80
2023-04-17T05:19:01.047Z,65.10
2023-04-17T05:21:53.854Z,64.82
2023-04-17T05:24:23.038Z,65.72
2023-04-17T05:26:51.009Z,61.38
2023-04-17T05:29:19.302Z,61.63
2023-04-17T05:31:47.915Z,60.97
2023-04-17T05:34:49.191Z,59.97
2023-04-17T05:37:20.038Z,58.30
2023-04-17T05:39:47.990Z,57.90
2023-04-17T05:42:15.668Z,56.20
2023-04-17T05:44:43.785Z,55.63
2023-04-17T05:47:11.497Z,56.13
2023-04-17T05:49:39.370Z,54.35
2023-04-17T05:52:08.345Z,54.05
2023-04-17T05:54:39.948Z,52.42
2023-04-17T05:57:09.452Z,52.70
2023-04-17T05:59:37.894Z,52.33
2023-04-17T06:02:07.582Z,50.05
2023-04-17T06:04:36.057Z,51.30
2023-04-17T06:07:06.009Z,48.60
2023-04-17T06:09:37.619Z,49.40
2023-04-17T06:12:05.325Z,48.03
2023-04-17T06:14:33.834Z,47.05
2023-04-17T06:17:05.548Z,45.30
2023-04-17T06:19:33.299Z,45.90
2023-04-17T06:22:01.096Z,44.90
2023-04-17T06:24:28.788Z,43.65
2023-04-17T06:26:58.341Z,43.45
2023-04-17T06:29:32.308Z,42.13
2023-04-17T06:32:00.177Z,42.20
2023-04-17T06:34:28.177Z,41.65
2023-04-17T06:36:56.832Z,40.20
2023-04-17T06:39:24.813Z,39.17
2023-04-17T06:41:52.740Z,38.22
2023-04-17T06:44:28.759Z,38.10
2023-04-17T06:46:56.473Z,37.45
2023-04-17T06:49:24.781Z,36.13
2023-04-17T06:51:52.472Z,35.95
2023-04-17T06:54:20.145Z,35.85
2023-04-17T06:56:48.165Z,34.90
2023-04-17T06:59:15.914Z,33.58
2023-04-17T07:01:45.425Z,33.92
2023-04-17T07:04:13.201Z,32.67
2023-04-17T07:06:41.146Z,32.40
2023-04-17T07:09:08.893Z,31.55
2023-04-17T07:11:36.600Z,30.80
2023-04-17T07:14:04.359Z,30.23
2023-04-17T07:16:32.084Z,29.60
2023-04-17T07:19:01.292Z,29.52
2023-04-17T07:21:28.963Z,28.55
2023-04-17T07:23:56.659Z,29.42
2023-04-17T07:26:24.358Z,27.63
2023-04-17T07:28:52.072Z,26.88
2023-04-17T07:31:21.756Z,26.95
2023-04-17T07:33:49.588Z,26.92
2023-04-17T07:36:18.967Z,25.60
2023-04-17T07:38:46.675Z,25.85
2023-04-17T07:41:14.351Z,25.55
2023-04-17T07:43:42.055Z,23.77
2023-04-17T07:46:09.807Z,23.98
2023-04-17T07:48:37.527Z,23.10
2023-04-17T07:51:05.854Z,23.02
2023-04-17T07:53:35.946Z,22.65
2023-04-17T07:56:03.623Z,21.25
2023-04-17T07:58:31.904Z,20.88
2023-04-17T08:00:59.600Z,20.98
2023-04-17T08:03:27.591Z,19.58
2023-04-17T08:05:55.507Z,19.83
2023-04-17T08:08:23.895Z,19.73
2023-04-17T08:10:53.097Z,18.58
2023-04-17T08:13:20.881Z,18.70
2023-04-17T08:15:48.598Z,18.35
2023-04-17T08:18:16.366Z,17.58
2023-04-17T08:20:44.061Z,17.55
2023-04-17T08:23:11.794Z,16.88
2023-04-17T08:25:39.444Z,16.30
2023-04-17T08:28:08.440Z,16.73
2023-04-17T08:30:36.331Z,16.35
2023-04-17T08:33:04.131Z,15.80
2023-04-17T08:35:31.989Z,15.00
2023-04-17T08:38:00.070Z,14.98
2023-04-17T08:40:27.926Z,15.40
2023-04-17T08:42:55.656Z,14.80
2023-04-17T08:45:25.327Z,14.32
2023-04-17T08:47:53.122Z,14.93
2023-04-17T08:50:21.908Z,13.88
2023-04-17T08:52:50.447Z,13.30
2023-04-17T08:55:19.290Z,12.93
2023-04-17T08:57:57.642Z,13.13
2023-04-17T09:00:27.664Z,12.30
2023-04-17T09:02:56.258Z,12.35
2023-04-17T09:05:24.520Z,11.40
2023-04-17T09:07:52.340Z,11.85
2023-04-17T09:10:20.017Z,11.90
2023-04-17T09:12:59.967Z,12.02
2023-04-17T09:15:29.556Z,11.23
2023-04-17T09:17:57.316Z,11.15
2023-04-17T09:20:25.294Z,10.98
2023-04-17T09:23:00.199Z,11.10
2023-04-17T09:25:28.435Z,10.85
2023-04-17T09:27:56.472Z,9.70
2023-04-17T09:30:26.930Z,10.50
2023-04-17T09:33:05.517Z,9.93
2023-04-17T09:35:33.490Z,9.38
2023-04-17T09:38:01.326Z,9.60
2023-04-17T09:40:30.250Z,9.50
2023-04-17T09:42:58.856Z,9.27
2023-04-17T09:45:28.148Z,9.05
2023-04-17T09:47:56.521Z,8.73
2023-04-17T09:50:25.762Z,9.18
2023-04-17T09:52:53.775Z,8.80
2023-04-17T09:55:24.752Z,8.52
2023-04-17T09:57:55.734Z,8.10
2023-04-17T10:00:26.847Z,8.18
2023-04-17T10:02:55.011Z,8.48
2023-04-17T10:05:23.222Z,7.85
2023-04-17T10:07:52.242Z,7.72
2023-04-17T10:10:23.833Z,8.02
2023-04-17T10:12:51.864Z,7.82
2023-04-17T10:15:20.164Z,7.63
2023-04-17T10:17:49.750Z,7.45
2023-04-17T10:20:38.122Z,7.72
2023-04-17T10:23:32.484Z,7.70
2023-04-17T10:26:40.330Z,7.25
2023-04-17T10:29:08.100Z,7.50
2023-04-17T10:32:25.814Z,7.35
2023-04-17T10:34:54.286Z,7.70
2023-04-17T10:37:23.274Z,7.68
2023-04-17T10:39:55.276Z,7.20
2023-04-17T10:42:23.749Z,7.00
2023-04-17T10:44:52.335Z,6.93
2023-04-17T10:47:23.138Z,6.93
2023-04-17T10:49:51.552Z,6.75
2023-04-17T10:52:41.812Z,6.82
2023-04-17T10:55:13.430Z,6.43
2023-04-17T10:57:59.034Z,6.78
2023-04-17T11:00:32.239Z,6.47
2023-04-17T11:03:01.153Z,6.22
2023-04-17T11:05:30.221Z,5.93
2023-04-17T11:07:57.996Z,6.15
2023-04-17T11:10:27.319Z,6.30
2023-04-17T11:12:56.430Z,6.15
2023-04-17T11:15:28.500Z,5.90
2023-04-17T11:17:56.910Z,5.80
2023-04-17T11:20:25.213Z,5.80
2023-04-17T11:22:52.877Z,6.00
2023-04-17T11:25:22.251Z,5.85
2023-04-17T11:27:56.077Z,5.75
2023-04-17T11:30:30.867Z,5.63
2023-04-17T11:32:59.850Z,5.32
2023-04-17T11:35:31.535Z,5.53
2023-04-17T11:38:12.744Z,5.50
2023-04-17T11:40:47.951Z,5.10
2023-04-17T11:43:17.215Z,5.72
2023-04-17T11:45:45.821Z,5.18
2023-04-17T11:48:14.649Z,5.50
2023-04-17T11:50:42.910Z,5.50
2023-04-17T11:53:13.305Z,5.60
2023-04-17T11:55:40.991Z,5.10
2023-04-17T11:58:09.402Z,5.20
2023-04-17T12:00:39.102Z,5.40
2023-04-17T12:03:31.891Z,5.18
2023-04-17T12:06:00.606Z,5.05
2023-04-17T12:08:28.985Z,4.80
2023-04-17T12:10:57.132Z,5.03
2023-04-17T12:13:24.933Z,4.82
2023-04-17T12:15:53.992Z,5.13
2023-04-17T12:18:21.677Z,4.88
2023-04-17T12:20:49.335Z,4.90
2023-04-17T12:23:17.005Z,4.88
2023-04-17T12:25:44.803Z,5.10
2023-04-17T12:28:12.617Z,4.90
2023-04-17T12:30:40.576Z,4.82
2023-04-17T12:33:09.900Z,4.68
2023-04-17T12:35:37.736Z,4.95
2023-04-17T12:38:05.485Z,4.90
2023-04-17T12:40:33.250Z,4.78
2023-04-17T12:43:00.907Z,5.00
2023-04-17T12:45:28.966Z,5.05
2023-04-17T12:47:56.831Z,4.90
2023-04-17T12:50:26.372Z,4.68
2023-04-17T12:52:54.085Z,4.53
2023-04-17T12:55:21.853Z,4.70
2023-04-17T12:57:49.599Z,4.50
2023-04-17T13:00:18.043Z,4.68
2023-04-17T13:02:45.857Z,4.25
2023-04-17T13:05:13.678Z,4.88
2023-04-17T13:07:42.661Z,4.40
2023-04-17T13:10:10.938Z,4.60
2023-04-17T13:12:38.600Z,4.43
2023-04-17T13:15:07.322Z,4.15
2023-04-17T13:17:35.041Z,4.43
2023-04-17T13:20:02.749Z,4.22
2023-04-17T13:22:30.406Z,4.18
2023-04-17T13:24:59.657Z,4.10
2023-04-17T13:27:27.392Z,4.35
2023-04-17T13:29:55.258Z,4.18
2023-04-17T13:32:22.983Z,4.40
2023-04-17T13:34:50.938Z,4.20
2023-04-17T13:37:18.658Z,4.40
2023-04-17T13:39:46.328Z,4.10
2023-04-17T13:42:16.432Z,4.30
2023-04-17T13:44:44.118Z,4.07
2023-04-17T13:47:11.810Z,4.40
2023-04-17T13:49:39.765Z,4.55
2023-04-17T13:52:07.790Z,4.30
2023-04-17T13:54:35.477Z,3.90
2023-04-17T13:57:03.168Z,4.20
2023-04-17T13:59:32.198Z,4.20
2023-04-17T14:02:03.662Z,4.05
2023-04-17T14:04:31.944Z,4.05
2023-04-17T14:07:00.051Z,4.20
2023-04-17T14:09:27.872Z,4.07
2023-04-17T14:11:55.561Z,3.92
2023-04-17T14:14:23.712Z,4.30
2023-04-17T14:16:52.967Z,4.20
2023-04-17T14:19:21.131Z,4.47
2023-04-17T14:21:48.870Z,4.20
2023-04-17T14:24:16.538Z,4.00
2023-04-17T14:26:44.211Z,3.83
2023-04-17T14:29:13.614Z,4.10
2023-04-17T14:31:41.788Z,4.00
2023-04-17T14:34:10.813Z,4.20
2023-04-17T14:36:38.519Z,3.83
2023-04-17T14:39:06.926Z,4.07
2023-04-17T14:41:34.832Z,3.92
2023-04-17T14:44:02.687Z,3.80
2023-04-17T14:46:30.738Z,3.60
2023-04-17T14:48:58.457Z,3.95
2023-04-17T14:51:28.380Z,3.78
2023-04-17T14:53:56.149Z,3.90
2023-04-17T14:56:23.910Z,3.83
2023-04-17T14:58:51.604Z,3.80
2023-04-17T15:01:19.361Z,3.80
2023-04-17T15:03:48.409Z,3.88
2023-04-17T15:06:16.829Z,3.63
2023-04-17T15:08:46.435Z,3.70
2023-04-17T15:11:14.179Z,3.75
2023-04-17T15:13:41.931Z,3.67
2023-04-17T15:16:10.068Z,3.83
2023-04-17T15:18:39.334Z,3.80
2023-04-17T15:21:07.422Z,3.65
2023-04-17T15:23:35.471Z,3.63
2023-04-17T15:26:04.660Z,3.70
2023-04-17T15:28:33.002Z,3.60
2023-04-17T15:31:02.160Z,3.58
2023-04-17T15:33:30.075Z,3.70
2023-04-17T15:35:58.499Z,3.78
2023-04-17T15:38:26.213Z,3.30
2023-04-17T15:40:54.058Z,3.60
2023-04-17T15:43:23.092Z,3.30
2023-04-17T15:45:51.219Z,3.50
2023-04-17T15:48:19.072Z,3.40
2023-04-17T15:50:47.051Z,3.50
2023-04-17T15:53:14.734Z,3.80
2023-04-17T15:55:42.472Z,3.60
2023-04-17T15:58:10.277Z,3.72
2023-04-17T16:00:39.538Z,3.42
2023-04-17T16:03:07.967Z,3.50
2023-04-17T16:05:36.035Z,3.42
2023-04-17T16:08:03.771Z,3.42
2023-04-17T16:10:31.491Z,3.53
2023-04-17T16:12:59.219Z,3.38
2023-04-17T16:15:26.910Z,3.53
2023-04-17T16:17:56.024Z,3.70
2023-04-17T16:20:23.877Z,3.33
2023-04-17T16:22:51.596Z,3.47
2023-04-17T16:25:20.742Z,3.70
2023-04-17T16:27:48.683Z,3.70
2023-04-17T16:30:16.348Z,3.45
2023-04-17T16:32:45.305Z,3.47
2023-04-17T16:35:14.371Z,3.50
2023-04-17T16:37:42.064Z,3.60
2023-04-17T16:40:11.559Z,3.45
2023-04-17T16:42:39.368Z,3.78
2023-04-17T16:45:08.059Z,3.20
2023-04-17T16:47:35.849Z,3.50
2023-04-17T16:50:03.707Z,3.40
2023-04-17T16:52:32.718Z,3.65
2023-04-17T16:55:00.633Z,3.50
2023-04-17T16:57:28.378Z,3.50
2023-04-17T16:59:56.086Z,3.60
2023-04-17T17:02:23.860Z,3.63
2023-04-17T17:04:51.935Z,3.40
2023-04-17T17:07:19.642Z,3.58
2023-04-17T17:09:48.782Z,3.38
2023-04-17T17:12:16.502Z,3.47
2023-04-17T17:14:44.341Z,3.35
2023-04-17T17:17:12.037Z,3.38
2023-04-17T17:19:39.737Z,3.65
2023-04-17T17:22:07.465Z,3.67
2023-04-17T17:24:36.101Z,3.40
2023-04-17T17:27:05.526Z,3.20
2023-04-17T17:29:33.510Z,3.10
2023-04-17T17:32:01.236Z,3.40
2023-04-17T17:34:30.493Z,3.33
2023-04-17T17:36:58.358Z,3.38
2023-04-17T17:39:26.216Z,3.15
2023-04-17T17:41:55.746Z,3.45
2023-04-17T17:44:24.963Z,3.30
2023-04-17T17:46:52.660Z,3.28
2023-04-17T17:49:20.352Z,3.50
2023-04-17T17:51:48.095Z,3.30
2023-04-17T17:54:15.869Z,3.33
2023-04-17T17:56:43.580Z,3.47
2023-04-17T17:59:11.259Z,3.42
2023-04-17T18:01:40.513Z,3.42
2023-04-17T18:04:08.530Z,3.35
2023-04-17T18:06:37.677Z,3.40
2023-04-17T18:09:05.400Z,3.40
2023-04-17T18:11:33.150Z,3.40
2023-04-17T18:14:01.446Z,3.30
2023-04-17T18:16:31.458Z,3.50
2023-04-17T18:19:03.244Z,3.20
2023-04-17T18:21:31.147Z,3.08
2023-04-17T18:23:59.111Z,3.50
2023-04-17T18:26:26.970Z,3.28
2023-04-17T18:28:54.744Z,3.40
2023-04-17T18:31:24.365Z,3.33
2023-04-17T18:33:52.070Z,3.20
2023-04-17T18:36:21.122Z,3.40
2023-04-17T18:38:48.874Z,3.50
2023-04-17T18:41:16.545Z,3.60
2023-04-17T18:43:44.230Z,3.78
2023-04-17T18:46:11.956Z,3.50
2023-04-17T18:48:39.653Z,3.50
2023-04-17T18:51:11.648Z,3.15
2023-04-17T18:53:40.670Z,3.50
2023-04-17T18:56:10.655Z,3.40
2023-04-17T18:58:40.135Z,3.00
2023-04-17T19:01:08.649Z,3.10
2023-04-17T19:03:36.409Z,3.38
2023-04-17T19:06:04.069Z,3.35
2023-04-17T19:08:31.758Z,3.53
2023-04-17T19:11:00.824Z,3.30
2023-04-17T19:13:28.542Z,3.25
2023-04-17T19:15:56.253Z,3.28
2023-04-17T19:18:24.059Z,3.20
2023-04-17T19:20:51.722Z,3.50
2023-04-17T19:23:19.465Z,3.45
2023-04-17T19:25:53.484Z,3.17
2023-04-17T19:28:22.656Z,3.40
2023-04-17T19:30:50.361Z,3.45
2023-04-17T19:33:18.606Z,3.22
2023-04-17T19:35:46.436Z,3.55
2023-04-17T19:38:16.761Z,3.17
2023-04-17T19:40:47.550Z,3.25
2023-04-17T19:43:15.252Z,3.33
2023-04-17T19:45:44.345Z,3.10
2023-04-17T19:48:12.057Z,3.17
2023-04-17T19:50:39.798Z,3.33
2023-04-17T19:53:07.486Z,3.13
2023-04-17T19:55:35.202Z,3.50
2023-04-17T19:58:02.866Z,3.35
2023-04-17T20:00:30.587Z,3.25
2023-04-17T20:02:59.712Z,3.05
2023-04-17T20:05:27.575Z,2.88
2023-04-17T20:07:55.372Z,3.13
2023-04-17T20:10:23.248Z,3.30
2023-04-17T20:12:50.992Z,3.15
2023-04-17T20:15:21.815Z,3.25
2023-04-17T20:17:49.803Z,3.10
2023-04-17T20:20:18.937Z,2.92
2023-04-17T20:22:46.729Z,2.97
2023-04-17T20:25:14.484Z,2.90
2023-04-17T20:27:42.178Z,3.22
2023-04-17T20:30:10.663Z,3.20
2023-04-17T20:32:38.549Z,3.13
2023-04-17T20:35:06.935Z,3.03
2023-04-17T20:37:35.948Z,3.50
2023-04-17T20:40:05.843Z,3.33
2023-04-17T20:42:33.557Z,3.15
2023-04-17T20:45:01.257Z,3.13
2023-04-17T20:47:29.036Z,3.20
2023-04-17T20:49:56.748Z,3.40
2023-04-17T20:52:24.431Z,3.13
2023-04-17T20:54:53.485Z,3.22
2023-04-17T20:57:21.201Z,3.10
2023-04-17T20:59:48.989Z,3.20
2023-04-17T21:02:17.124Z,3.20
2023-04-17T21:04:45.029Z,2.70
2023-04-17T21:07:12.735Z,3.30
2023-04-17T21:09:40.579Z,2.97
2023-04-17T21:12:09.633Z,3.10
2023-04-17T21:14:37.372Z,3.00
2023-04-17T21:17:05.055Z,2.90
2023-04-17T21:19:35.488Z,2.97
2023-04-17T21:22:03.923Z,3.35
2023-04-17T21:24:31.627Z,3.10
2023-04-17T21:26:59.640Z,3.20
2023-04-17T21:29:28.802Z,3.30
2023-04-17T21:31:56.737Z,3.10
2023-04-17T21:34:24.484Z,3.20
2023-04-17T21:36:53.699Z,3.28
2023-04-17T21:39:21.426Z,3.10
2023-04-17T21:41:49.107Z,3.20
2023-04-17T21:44:16.801Z,3.03
2023-04-17T21:46:46.616Z,2.90
2023-04-17T21:49:14.325Z,3.08
2023-04-17T21:51:42.082Z,3.10
2023-04-17T21:54:09.980Z,3.10
2023-04-17T21:56:37.794Z,3.00
2023-04-17T21:59:05.753Z,2.90
2023-04-17T22:01:33.525Z,3.03
2023-04-17T22:04:02.939Z,3.00
2023-04-17T22:06:30.796Z,3.15
2023-04-17T22:08:58.470Z,2.80
2023-04-17T22:11:26.208Z,2.95
2023-04-17T22:13:53.939Z,2.80
2023-04-17T22:16:21.665Z,3.00
2023-04-17T22:18:49.432Z,3.38
2023-04-17T22:21:18.406Z,3.10
2023-04-17T22:23:46.147Z,2.85
2023-04-17T22:26:13.888Z,3.15
2023-04-17T22:28:41.652Z,3.10
2023-04-17T22:31:10.961Z,2.70
2023-04-17T22:33:38.757Z,2.75
2023-04-17T22:36:06.701Z,3.05
2023-04-17T22:38:35.740Z,2.95
2023-04-17T22:41:03.921Z,3.03
2023-04-17T22:43:31.582Z,2.88
2023-04-17T22:45:59.399Z,3.10
2023-04-17T22:48:27.775Z,2.85
2023-04-17T22:50:56.310Z,2.72
2023-04-17T22:53:24.070Z,3.03
2023-04-17T22:56:02.387Z,2.90
2023-04-17T22:58:31.743Z,2.90
2023-04-17T23:00:59.590Z,2.90
2023-04-17T23:03:27.730Z,3.13
2023-04-17T23:05:55.421Z,3.05
2023-04-17T23:08:23.584Z,3.00
2023-04-17T23:10:58.077Z,3.03
2023-04-17T23:13:27.200Z,2.88
2023-04-17T23:15:54.975Z,2.90
2023-04-17T23:18:22.716Z,2.90
2023-04-17T23:20:50.546Z,3.05
2023-04-17T23:23:18.772Z,2.90
2023-04-17T23:25:46.446Z,2.88
2023-04-17T23:28:14.268Z,2.80
2023-04-17T23:30:43.407Z,2.80
2023-04-17T23:33:11.152Z,3.00
2023-04-17T23:35:38.834Z,2.80
2023-04-17T23:38:06.616Z,2.78
2023-04-17T23:40:34.745Z,2.92
2023-04-17T23:43:02.474Z,2.67
2023-04-17T23:45:30.118Z,2.80
2023-04-17T23:47:59.253Z,2.85
2023-04-17T23:50:26.948Z,2.78
2023-04-17T23:52:55.063Z,2.90
2023-04-17T23:55:25.704Z,2.90
2023-04-17T23:57:53.434Z,2.88
